x

Central Aleutians 230nm Sw Dutch Harbor (46072) Wave Buoy

11:50 - Tue 30th Aug 2016 All times are UTC.

  • Sig Wave height 5.2ft
  • Swell Direction
  • Peak Period 6s
  • Average Period 5s
  • Wind
    18mph, 20mph gusts
  • Sea Temp 55°f
  • Aire Temp 55°f
  • Sea Pressure 1007.1mb

More Historic Weather Station data

Upgrade to MSW Pro to gain access to the past 30 days of data for over 8000 Wavebouys and Weather Stations around the globe.

Join Pro

Comparision Forecast

View Surf forecast
   
mar 08/30 11:50 5ft 6s 5s 18 20 mph 1007.1mb 55f 55f
10:50 5.5ft 6s 5s 18 20 mph 1007.5mb 55f 55f
9:50 5.5ft 6s 5s 20 25 mph 1007.7mb 55f 55f
8:50 5.5ft 6s 5s 20 22 mph 1007.5mb 55f 55f
7:50 5ft 5s 5s 20 25 mph 1007.7mb 55f 56f
6:50 4.5ft 14s 5s 20 25 mph 1008.2mb 55f 56f
5:50 4.5ft 4s 5s 20 25 mph 1008.5mb 55f 56f
4:50 4ft 15s 5s 22 27 mph 1009mb 55f 56f
3:50 3.5ft 8s 4s 20 22 mph 1009.8mb 55f 55f
2:50 3.5ft 14s 5s 18 20 mph 1011mb 55f 55f
1:50 4ft 14s 5s 16 18 mph 1012mb 55f 55f
12:50 4ft 8s 6s 13 16 mph 1013mb 55f 55f
11:50 4ft 14s 5s 13 16 mph 1013.7mb 55f 55f
10:50 4.5ft 8s 5s 13 16 mph 1014.6mb 55f 55f
9:50 4.5ft 13s 5s 16 18 mph 1015.1mb 55f 55f
8:50 4.5ft 14s 5s 13 16 mph 1015.9mb 55f 55f
7:50 4.5ft 12s 5s 18 20 mph 1016.1mb 55f 55f
6:50 4ft 14s 5s 18 22 mph 1016.3mb 55f 55f
5:50 4ft 14s 5s 18 22 mph 1016.9mb 55f 55f
4:50 4ft 9s 5s 16 20 mph 1017.5mb 55f 55f
3:50 4.5ft 8s 6s 16 18 mph 1018.2mb 55f 55f
2:50 4.5ft 8s 6s 13 16 mph 1019mb 55f 55f
1:50 3.5ft 15s 5s 13 18 mph 1019.7mb 55f 55f
12:50 4ft 9s 6s 16 20 mph 1020.1mb 55f 55f
lun 08/29 11:50 4.5ft 12s 6s 13 18 mph 1020.8mb 55f 54f
10:50 4.5ft 15s 6s 16
mph
1021.1mb 55f 55f
9:50 4.5ft 15s  -  13 16 mph 1021.5mb 54f 54f
8:50 4.5ft 14s 6s 11
mph
1021.9mb 54f 54f
7:50 5ft 8s 6s 11 13 mph 1022.4mb 53f 53f
6:50 4.5ft 7s 6s 9 11 mph 1022.9mb 53f 53f
5:50 4.5ft 8s 6s 11 13 mph 1023mb 53f 53f
4:50 4.5ft 14s 6s 13 16 mph 1023.1mb 53f 53f
3:50 4.5ft 8s 6s 13 16 mph 1023mb 54f 53f
2:50 4.5ft 15s 6s 16
mph
1023mb 54f 53f
1:50 5ft 15s 6s 13 16 mph 1023.7mb 54f 53f
12:50 4.5ft 10s 6s 13 18 mph 1023.8mb 55f 53f
11:50 4.5ft 9s 6s 16 18 mph 1023.8mb 55f 53f
10:50 5ft 9s 6s 16 18 mph 1023.8mb 55f 53f
9:50 5ft 9s 6s 16 18 mph 1023.8mb 55f 53f
8:50 5ft 8s 6s 16 18 mph 1023.9mb 55f 54f
7:50 4.5ft 8s 5s 16 18 mph 1023.8mb 55f 54f
6:50 5ft 9s 6s 16 18 mph 1023.2mb 55f 54f
5:50 5ft 9s 6s 16 18 mph 1023.1mb 55f 54f
4:50 4.5ft 9s 6s 16 18 mph 1023mb 55f 54f
3:50 4.5ft 9s 6s 16 18 mph 1023mb 55f 55f
2:50 4.5ft 9s 6s 18 20 mph 1023mb 54f 55f
1:50 5ft 9s 6s 16 20 mph 1023.2mb 54f 55f
12:50 5ft 9s 5s 16 20 mph 1023.5mb 54f 55f
dom 08/28 11:50 5.5ft 9s 5s 18 22 mph 1023.6mb 54f 54f
10:50 5.5ft 9s 6s 18 22 mph 1023.5mb 53f 53f
9:50 5.5ft 9s 6s 20 22 mph 1023.7mb 53f 53f
8:50 5.5ft 8s 6s 20 25 mph 1023.5mb 54f 52f
7:50 5ft 7s 6s 18 20 mph 1023.4mb 54f 52f
6:50 5ft 9s 6s 20 22 mph 1022.7mb 54f 54f
5:50 4.5ft 8s 5s 16 18 mph 1022.8mb 54f 54f
4:50 5ft 10s 6s 16 18 mph 1022.4mb 54f 52f
3:50 4.5ft 9s 6s 16 18 mph 1022.1mb 54f 54f
2:50 4.5ft 9s 6s 16 20 mph 1021.9mb 54f 55f
1:50 4.5ft 10s 5s 13 18 mph 1021.5mb 54f 55f
12:50 5ft 10s 6s 16 20 mph 1021.5mb 54f 55f
11:50 5ft 10s 6s 13 16 mph 1021.2mb 54f 55f
10:50 5ft 10s 6s 13 18 mph 1021.2mb 54f 55f
9:50 5ft 9s 6s 13 18 mph 1020.8mb 54f 55f
7:50 5ft 10s 5s 18 22 mph 1019.8mb 54f 55f
6:50 5ft 9s 6s 18 22 mph 1019.2mb 54f 54f
5:50 5ft 10s 6s 16 18 mph 1018.7mb 54f 54f
4:50 4.5ft 10s 6s 16 18 mph 1018.2mb 54f 55f
2:50 4.5ft 8s 6s 16 18 mph 1018mb 54f 54f
1:50 4.5ft 9s 6s 13 16 mph 1018.2mb 54f 53f
12:50 4.5ft 10s 6s 13 16 mph 1018.2mb 54f 53f
sáb 08/27 11:50 4.5ft 10s 6s 13 18 mph 1018.3mb 54f 53f
10:50 4.5ft 10s 6s 16 20 mph 1017.9mb 54f 53f
9:50 4.5ft 10s 6s 11 13 mph 1017.9mb 54f 54f
8:50 5ft 10s 7s 13 16 mph 1017.8mb 54f 54f
7:50 5ft 10s 6s 13 16 mph 1017.7mb 53f 55f
6:50 5ft 10s 6s 13 18 mph 1017.8mb 53f 54f
5:50 5.5ft 10s 7s 16 18 mph 1017.6mb 53f 54f
4:50 5ft 10s 6s 13 16 mph 1017.9mb 54f 54f
3:50 5.5ft 10s 7s 16
mph
1017.9mb 54f 54f
2:50 5ft 11s 6s 16 18 mph 1018.5mb 54f 53f
1:50 5ft 10s 7s 16 18 mph 1019mb 54f 53f
12:50 5ft 11s 7s 13 16 mph 1020.1mb 53f 54f
11:50 4.5ft 11s 8s 11 13 mph 1020.7mb 53f 53f
10:50 5ft 11s 8s 11 13 mph 1021.1mb 53f 53f
9:50 4.5ft 11s 7s 11 13 mph 1021.5mb 53f 53f
8:50 5ft 9s 7s 11 13 mph 1021.9mb 53f 53f
7:50 4.5ft 11s 7s 11 13 mph 1021.9mb 53f 53f
6:50 4.5ft 11s 6s 9 11 mph 1022.1mb 53f 53f
5:50 4.5ft 6s 6s 7 9 mph 1022.3mb 53f 53f
4:50 4.5ft 6s 6s 4
mph
1022.7mb 54f 53f
3:50 4.5ft 6s 6s 2 4 mph 1022.8mb 54f 53f
2:50 5ft 7s 6s 4 7 mph 1023.3mb 54f 53f
1:50 5.5ft 7s 6s 9
mph
1023.2mb 53f 53f
12:50 5ft 7s 6s 13 16 mph 1023.5mb 53f 53f